Time;durP1;ratioP1;P1;durP2;ratioP2;P2;SDS_P1;SDS_P2;PMS_P1;PMS_P2;Temp;Humidity;BMP_temperature;BMP_pressure;BME280_temperature;BME280_humidity;BME280_pressure;Samples;Min_cycle;Max_cycle;Signal;HPM_P1;HPM_P2
2022/02/15 00:01:44;;;;;;;;;;;;;;;;;;5013937;28;1110;-68
2022/02/15 00:04:11;;;;;;;;;;;;;;;;;;5013791;28;1074;-68
2022/02/15 00:06:37;;;;;;;;;;;;;;;;;;5013524;28;1270;-70
2022/02/15 00:09:04;;;;;;;;;;;;;;;;;;5013572;28;1003;-70
2022/02/15 00:11:30;;;;;;;;;;;;;;;;;;5013976;28;848;-70
2022/02/15 00:13:56;;;;;;;;;;;;;;;;;;5013578;28;1153;-69
2022/02/15 00:16:23;;;;;;;;;;;;;;;;;;5012011;28;1977;-69
2022/02/15 00:18:50;;;;;;;;;;;;;;;;;;5013706;28;1054;-70
2022/02/15 00:21:16;;;;;;;;;;;;;;;;;;5013632;28;1011;-70
2022/02/15 00:23:42;;;;;;;;;;;;;;;;;;5013538;28;1141;-70
2022/02/15 00:26:08;;;;;;;;;;;;;;;;;;5011111;28;1433;-70
2022/02/15 00:28:34;;;;;;;;;;;;;;;;;;5013569;28;1252;-70
2022/02/15 00:31:01;;;;;;;;;;;;;;;;;;5011995;28;952;-69
2022/02/15 00:33:28;;;;;;;;;;;;;;;;;;5012102;28;1190;-70
2022/02/15 00:35:56;;;;;;;;;;;;;;;;;;5012970;28;1981;-69
2022/02/15 00:38:22;;;;;;;;;;;;;;;;;;5012027;28;1247;-70
2022/02/15 00:40:48;;;;;;;;;;;;;;;;;;5011876;28;1113;-70
2022/02/15 00:43:15;;;;;;;;;;;;;;;;;;5011673;28;1162;-70
2022/02/15 00:45:41;;;;;;;;;;;;;;;;;;5011591;28;1320;-70
2022/02/15 00:48:07;;;;;;;;;;;;;;;;;;5013016;28;1074;-70
2022/02/15 00:50:35;;;;;;;;;;;;;;;;;;5013132;28;883;-70
2022/02/15 00:53:01;;;;;;;;;;;;;;;;;;5013038;28;718;-69
2022/02/15 00:55:27;;;;;;;;;;;;;;;;;;5012673;28;1493;-70
2022/02/15 00:57:54;;;;;;;;;;;;;;;;;;5012674;28;1918;-70
2022/02/15 01:00:22;;;;;;;;;;;;;;;;;;5011391;28;1141;-70
2022/02/15 01:02:48;;;;;;;;;;;;;;;;;;5012893;28;1137;-70
2022/02/15 01:05:16;;;;;;;;;;;;;;;;;;5011177;28;1357;-70
2022/02/15 01:07:44;;;;;;;;;;;;;;;;;;5012688;28;1070;-70
2022/02/15 01:10:10;;;;;;;;;;;;;;;;;;5012792;28;941;-70
2022/02/15 01:12:36;;;;;;;;;;;;;;;;;;5011336;28;1386;-71
2022/02/15 01:15:03;;;;;;;;;;;;;;;;;;5011786;28;1310;-70
2022/02/15 01:17:29;;;;;;;;;;;;;;;;;;5011108;28;1918;-70
2022/02/15 01:19:56;;;;;;;;;;;;;;;;;;5011277;28;1125;-69
2022/02/15 01:22:22;;;;;;;;;;;;;;;;;;5011528;28;1184;-70
2022/02/15 01:24:49;;;;;;;;;;;;;;;;;;5011957;28;1409;-70
2022/02/15 01:27:16;;;;;;;;;;;;;;;;;;5011236;28;1396;-70
2022/02/15 01:29:42;;;;;;;;;;;;;;;;;;5010941;28;1655;-71
2022/02/15 01:32:08;;;;;;;;;;;;;;;;;;5010739;28;1332;-70
2022/02/15 01:34:35;;;;;;;;;;;;;;;;;;5012064;28;789;-70
2022/02/15 01:37:01;;;;;;;;;;;;;;;;;;5010054;28;1982;-70
2022/02/15 01:39:28;;;;;;;;;;;;;;;;;;5007675;28;1532;-70
2022/02/15 01:41:56;;;;;;;;;;;;;;;;;;5010730;28;1337;-70
2022/02/15 01:44:22;;;;;;;;;;;;;;;;;;5010595;28;1117;-70
2022/02/15 01:46:50;;;;;;;;;;;;;;;;;;5010420;28;1493;-69
2022/02/15 01:49:17;;;;;;;;;;;;;;;;;;5010820;28;2682;-70
2022/02/15 01:51:43;;;;;;;;;;;;;;;;;;5010628;28;1034;-70
2022/02/15 01:54:10;;;;;;;;;;;;;;;;;;5010299;28;1255;-67
2022/02/15 01:56:38;;;;;;;;;;;;;;;;;;5026707;28;1914;-70
2022/02/15 01:59:06;;;;;;;;;;;;;;;;;;5010322;28;1203;-69
2022/02/15 02:01:34;;;;;;;;;;;;;;;;;;5010604;28;1328;-70
2022/02/15 02:05:47;;;;;;;;;;;;;;;;;;5010200;28;1224;-68
2022/02/15 02:06:56;;;;;;;;;;;;;;;;;;5026198;28;1539;-70
2022/02/15 02:09:24;;;;;;;;;;;;;;;;;;5026795;28;1375;-70
2022/02/15 02:11:50;;;;;;;;;;;;;;;;;;5010289;28;1530;-70
2022/02/15 02:14:24;;;;;;;;;;;;;;;;;;5010176;28;1176;-69
2022/02/15 02:16:53;;;;;;;;;;;;;;;;;;5010117;28;1989;-70
2022/02/15 02:19:24;;;;;;;;;;;;;;;;;;5010214;28;1324;-70
2022/02/15 02:21:54;;;;;;;;;;;;;;;;;;5010131;28;1181;-70
2022/02/15 02:24:20;;;;;;;;;;;;;;;;;;5009413;28;1562;-69
2022/02/15 02:26:49;;;;;;;;;;;;;;;;;;5010145;28;1351;-69
2022/02/15 02:29:15;;;;;;;;;;;;;;;;;;5010160;28;1374;-70
2022/02/15 02:31:44;;;;;;;;;;;;;;;;;;5010171;28;1288;-70
2022/02/15 02:34:12;;;;;;;;;;;;;;;;;;5010051;28;1228;-68
2022/02/15 02:36:43;;;;;;;;;;;;;;;;;;5009899;28;1918;-70
2022/02/15 02:39:11;;;;;;;;;;;;;;;;;;5009814;28;928;-70
2022/02/15 02:41:37;;;;;;;;;;;;;;;;;;5009857;28;1332;-69
2022/02/15 02:44:03;;;;;;;;;;;;;;;;;;5010750;28;837;-69
2022/02/15 02:46:30;;;;;;;;;;;;;;;;;;5009635;28;1402;-69
2022/02/15 02:48:56;;;;;;;;;;;;;;;;;;5010816;28;906;-69
2022/02/15 02:51:24;;;;;;;;;;;;;;;;;;5009862;28;1479;-69
2022/02/15 02:53:50;;;;;;;;;;;;;;;;;;5009589;28;1192;-69
2022/02/15 02:56:18;;;;;;;;;;;;;;;;;;5009304;28;1911;-70
2022/02/15 02:58:45;;;;;;;;;;;;;;;;;;5009629;28;1222;-70
2022/02/15 03:01:11;;;;;;;;;;;;;;;;;;5009291;28;1432;-70
2022/02/15 03:03:40;;;;;;;;;;;;;;;;;;5009741;28;1448;-69
2022/02/15 03:06:08;;;;;;;;;;;;;;;;;;5009080;28;1371;-70
2022/02/15 03:08:35;;;;;;;;;;;;;;;;;;5026017;28;1604;-70
2022/02/15 03:11:01;;;;;;;;;;;;;;;;;;5009646;28;1321;-69
2022/02/15 03:13:44;;;;;;;;;;;;;;;;;;5009460;28;1535;-70
2022/02/15 03:16:23;;;;;;;;;;;;;;;;;;5009134;28;1910;-70
2022/02/15 03:18:51;;;;;;;;;;;;;;;;;;5003775;28;2663;-69
2022/02/15 03:21:18;;;;;;;;;;;;;;;;;;4990558;28;1052;-69
2022/02/15 03:23:44;;;;;;;;;;;;;;;;;;4989546;28;1160;-69
2022/02/15 03:26:12;;;;;;;;;;;;;;;;;;4989356;28;1380;-70
2022/02/15 03:28:40;;;;;;;;;;;;;;;;;;5020924;23;3773;-73
2022/02/15 03:31:08;;;;;;;;;;;;;;;;;;5025862;28;1532;-73
2022/02/15 03:33:36;;;;;;;;;;;;;;;;;;5010581;28;908;-73
2022/02/15 03:36:03;;;;;;;;;;;;;;;;;;5010365;28;852;-73
2022/02/15 03:38:31;;;;;;;;;;;;;;;;;;5019646;28;1914;-72
2022/02/15 03:43:54;;;;;;;;;;;;;;;;;;5029036;28;1077;-72
2022/02/15 03:46:26;;;;;;;;;;;;;;;;;;5028872;28;1323;-72
2022/02/15 03:48:53;;;;;;;;;;;;;;;;;;5029037;28;1362;-73
2022/02/15 03:51:20;;;;;;;;;;;;;;;;;;5029052;28;1198;-73
2022/02/15 03:53:50;;;;;;;;;;;;;;;;;;5030363;28;800;-73
2022/02/15 03:56:17;;;;;;;;;;;;;;;;;;5028384;28;1136;-73
2022/02/15 03:58:46;;;;;;;;;;;;;;;;;;5028690;28;2009;-73
2022/02/15 04:01:16;;;;;;;;;;;;;;;;;;5030111;28;1398;-73
2022/02/15 04:03:44;;;;;;;;;;;;;;;;;;5032496;28;947;-72
2022/02/15 04:06:12;;;;;;;;;;;;;;;;;;5032375;28;1285;-72
2022/02/15 04:08:38;;;;;;;;;;;;;;;;;;5032526;28;1421;-73
2022/02/15 04:11:05;;;;;;;;;;;;;;;;;;5032595;28;1195;-73
2022/02/15 04:13:32;;;;;;;;;;;;;;;;;;5032493;28;1382;-73
2022/02/15 04:15:59;;;;;;;;;;;;;;;;;;5031919;28;1406;-72
2022/02/15 04:18:26;;;;;;;;;;;;;;;;;;5032026;28;1922;-72
2022/02/15 04:20:54;;;;;;;;;;;;;;;;;;5032540;28;1438;-72
2022/02/15 04:23:20;;;;;;;;;;;;;;;;;;5033497;28;769;-72
2022/02/15 04:25:47;;;;;;;;;;;;;;;;;;5031927;28;1333;-72
2022/02/15 04:28:24;;;;;;;;;;;;;;;;;;5043705;28;1556;-72
2022/02/15 04:30:50;;;;;;;;;;;;;;;;;;5056403;28;1397;-73
2022/02/15 04:33:16;;;;;;;;;;;;;;;;;;5055048;28;1335;-73
2022/02/15 04:35:44;;;;;;;;;;;;;;;;;;5054927;28;1482;-72
2022/02/15 04:38:13;;;;;;;;;;;;;;;;;;5054868;28;1967;-73
2022/02/15 04:40:39;;;;;;;;;;;;;;;;;;5071739;28;1342;-73
2022/02/15 04:43:08;;;;;;;;;;;;;;;;;;5055360;28;1183;-73
2022/02/15 04:45:35;;;;;;;;;;;;;;;;;;5054870;28;1161;-73
2022/02/15 04:48:02;;;;;;;;;;;;;;;;;;5054805;28;1332;-72
2022/02/15 04:50:30;;;;;;;;;;;;;;;;;;5054776;28;1357;-72
2022/02/15 04:52:57;;;;;;;;;;;;;;;;;;5054768;28;1145;-71
2022/02/15 04:55:25;;;;;;;;;;;;;;;;;;5053728;28;1462;-72
2022/02/15 04:57:58;;;;;;;;;;;;;;;;;;5054678;28;1917;-73
2022/02/15 05:00:27;;;;;;;;;;;;;;;;;;5069868;28;1468;-72
2022/02/15 05:03:04;;;;;;;;;;;;;;;;;;5051471;28;1570;-71
2022/02/15 05:05:31;;;;;;;;;;;;;;;;;;5060621;28;1570;-73
2022/02/15 05:07:57;;;;;;;;;;;;;;;;;;5054680;28;1579;-72
2022/02/15 05:10:27;;;;;;;;;;;;;;;;;;5054304;28;1505;-73
2022/02/15 05:12:53;;;;;;;;;;;;;;;;;;5074234;28;1559;-73
2022/02/15 05:15:35;;;;;;;;;;;;;;;;;;5070804;28;1496;-72
2022/02/15 05:18:12;;;;;;;;;;;;;;;;;;5054266;28;1902;-72
2022/02/15 05:20:44;;;;;;;;;;;;;;;;;;5054699;28;1501;-73
2022/02/15 05:23:11;;;;;;;;;;;;;;;;;;5055203;28;1549;-73
2022/02/15 05:25:41;;;;;;;;;;;;;;;;;;5070398;28;1555;-73
2022/02/15 05:28:18;;;;;;;;;;;;;;;;;;5050422;28;1524;-73
2022/02/15 05:30:44;;;;;;;;;;;;;;;;;;5040791;28;1346;-73
2022/02/15 05:33:15;;;;;;;;;;;;;;;;;;5054362;28;1320;-72
2022/02/15 05:35:46;;;;;;;;;;;;;;;;;;5053702;28;1281;-72
2022/02/15 05:38:14;;;;;;;;;;;;;;;;;;5053865;28;1910;-73
2022/02/15 05:40:44;;;;;;;;;;;;;;;;;;5053588;28;1616;-70
2022/02/15 05:43:13;;;;;;;;;;;;;;;;;;5054116;28;1286;-73
2022/02/15 05:45:42;;;;;;;;;;;;;;;;;;5053661;28;1409;-73
2022/02/15 05:48:18;;;;;;;;;;;;;;;;;;5053583;28;1479;-71
2022/02/15 05:50:51;;;;;;;;;;;;;;;;;;5070695;28;1247;-73
2022/02/15 05:53:29;;;;;;;;;;;;;;;;;;5053697;28;1028;-73
2022/02/15 05:55:59;;;;;;;;;;;;;;;;;;5053560;28;1355;-73
2022/02/15 05:58:32;;;;;;;;;;;;;;;;;;5053398;28;2029;-72
2022/02/15 06:00:59;;;;;;;;;;;;;;;;;;5053583;28;1343;-72
2022/02/15 06:06:14;;;;;;;;;;;;;;;;;;5053314;28;1237;-72
2022/02/15 06:08:40;;;;;;;;;;;;;;;;;;5070344;28;1430;-73
2022/02/15 06:11:10;;;;;;;;;;;;;;;;;;5053435;28;1528;-72
2022/02/15 06:13:42;;;;;;;;;;;;;;;;;;5053341;28;1605;-73
2022/02/15 06:16:13;;;;;;;;;;;;;;;;;;5053275;28;1535;-73
2022/02/15 06:18:51;;;;;;;;;;;;;;;;;;5070011;28;1934;-72
2022/02/15 06:21:17;;;;;;;;;;;;;;;;;;5052969;28;1462;-72
2022/02/15 06:23:44;;;;;;;;;;;;;;;;;;5069469;28;1592;-72
2022/02/15 06:26:13;;;;;;;;;;;;;;;;;;5052952;28;1369;-73
2022/02/15 06:29:02;;;;;;;;;;;;;;;;;;5070979;28;1324;-73
2022/02/15 06:31:36;;;;;;;;;;;;;;;;;;5053054;28;1221;-73
2022/02/15 06:34:03;;;;;;;;;;;;;;;;;;5069688;28;1331;-73
2022/02/15 06:36:30;;;;;;;;;;;;;;;;;;5052823;28;1318;-73
2022/02/15 06:38:58;;;;;;;;;;;;;;;;;;5052868;28;1922;-72
2022/02/15 06:41:26;;;;;;;;;;;;;;;;;;5053041;28;1312;-73
2022/02/15 06:43:59;;;;;;;;;;;;;;;;;;5052880;28;1207;-72
2022/02/15 06:46:40;;;;;;;;;;;;;;;;;;5052906;28;1374;-72
2022/02/15 06:49:14;;;;;;;;;;;;;;;;;;5069720;28;1450;-72
2022/02/15 06:51:43;;;;;;;;;;;;;;;;;;5052779;28;1180;-72
2022/02/15 06:54:12;;;;;;;;;;;;;;;;;;5052312;28;1407;-71
2022/02/15 06:56:48;;;;;;;;;;;;;;;;;;5052879;28;1328;-72
2022/02/15 06:59:22;;;;;;;;;;;;;;;;;;5052585;28;1979;-72
2022/02/15 07:01:50;;;;;;;;;;;;;;;;;;5052697;28;1369;-72
2022/02/15 07:04:16;;;;;;;;;;;;;;;;;;5069186;28;1276;-72
2022/02/15 07:06:43;;;;;;;;;;;;;;;;;;5052918;28;1183;-72
2022/02/15 07:09:10;;;;;;;;;;;;;;;;;;5052557;28;1419;-72
2022/02/15 07:11:56;;;;;;;;;;;;;;;;;;5070741;28;652;-72
2022/02/15 07:14:23;;;;;;;;;;;;;;;;;;5052312;28;1208;-73
2022/02/15 07:16:54;;;;;;;;;;;;;;;;;;5069750;28;1332;-72
2022/02/15 07:19:20;;;;;;;;;;;;;;;;;;5052532;28;1922;-70
2022/02/15 07:22:21;;;;;;;;;;;;;;;;;;5070258;28;1169;-72
2022/02/15 07:25:00;;;;;;;;;;;;;;;;;;5052475;28;1061;-72
2022/02/15 07:27:32;;;;;;;;;;;;;;;;;;5052666;28;1423;-72
2022/02/15 07:30:01;;;;;;;;;;;;;;;;;;5052574;28;1454;-72
2022/02/15 07:32:34;;;;;;;;;;;;;;;;;;5069253;28;1454;-72
2022/02/15 07:35:02;;;;;;;;;;;;;;;;;;5052222;28;1348;-72
2022/02/15 07:37:29;;;;;;;;;;;;;;;;;;5073701;28;1423;-72
2022/02/15 07:39:56;;;;;;;;;;;;;;;;;;5074065;28;1918;-73
2022/02/15 07:42:22;;;;;;;;;;;;;;;;;;5073663;28;1550;-72
2022/02/15 07:44:54;;;;;;;;;;;;;;;;;;5055787;28;1458;-72
2022/02/15 07:47:21;;;;;;;;;;;;;;;;;;5064487;28;1421;-71
2022/02/15 07:49:47;;;;;;;;;;;;;;;;;;5073641;28;1077;-72
2022/02/15 07:52:14;;;;;;;;;;;;;;;;;;5072558;28;1538;-72
2022/02/15 07:54:40;;;;;;;;;;;;;;;;;;5073627;28;1137;-72
2022/02/15 07:57:06;;;;;;;;;;;;;;;;;;5072619;28;1170;-73
2022/02/15 07:59:33;;;;;;;;;;;;;;;;;;5073628;28;1910;-72
2022/02/15 08:02:00;;;;;;;;;;;;;;;;;;5072499;28;1175;-73
2022/02/15 08:04:26;;;;;;;;;;;;;;;;;;5072288;28;753;-72
2022/02/15 08:06:58;;;;;;;;;;;;;;;;;;5072433;28;2058;-73
2022/02/15 08:09:25;;;;;;;;;;;;;;;;;;5071752;28;1395;-72
2022/02/15 08:11:54;;;;;;;;;;;;;;;;;;5074180;28;844;-73
2022/02/15 08:14:21;;;;;;;;;;;;;;;;;;5074551;28;1133;-72
2022/02/15 08:16:48;;;;;;;;;;;;;;;;;;5073588;28;919;-72
2022/02/15 08:19:17;;;;;;;;;;;;;;;;;;5073329;28;1914;-73
2022/02/15 08:21:43;;;;;;;;;;;;;;;;;;5073147;28;1104;-73
2022/02/15 08:24:09;;;;;;;;;;;;;;;;;;5074824;28;1144;-73
2022/02/15 08:26:35;;;;;;;;;;;;;;;;;;5073399;28;1117;-72
2022/02/15 08:29:01;;;;;;;;;;;;;;;;;;5073114;28;1322;-73
2022/02/15 08:31:28;;;;;;;;;;;;;;;;;;5073164;28;766;-72
2022/02/15 08:33:54;;;;;;;;;;;;;;;;;;5072972;28;1077;-72
2022/02/15 08:36:21;;;;;;;;;;;;;;;;;;5071510;28;1187;-73
2022/02/15 08:38:48;;;;;;;;;;;;;;;;;;5072780;28;1918;-71
2022/02/15 08:41:14;;;;;;;;;;;;;;;;;;5071780;28;1689;-71
2022/02/15 08:43:40;;;;;;;;;;;;;;;;;;5072535;28;1094;-71
2022/02/15 08:46:06;;;;;;;;;;;;;;;;;;5072649;28;1054;-71
2022/02/15 08:48:33;;;;;;;;;;;;;;;;;;5072483;28;1321;-72
2022/02/15 08:50:59;;;;;;;;;;;;;;;;;;5072669;28;1078;-72
2022/02/15 08:53:26;;;;;;;;;;;;;;;;;;5072614;28;1089;-72
2022/02/15 08:55:54;;;;;;;;;;;;;;;;;;5072491;28;860;-71
2022/02/15 08:58:20;;;;;;;;;;;;;;;;;;5072442;28;1977;-71
2022/02/15 09:00:46;;;;;;;;;;;;;;;;;;5072478;28;1077;-70
2022/02/15 09:03:14;;;;;;;;;;;;;;;;;;5072350;28;1102;-71
2022/02/15 09:05:41;;;;;;;;;;;;;;;;;;5072236;28;1116;-73
2022/02/15 09:08:07;;;;;;;;;;;;;;;;;;5072232;28;1321;-71
2022/02/15 09:10:37;;;;;;;;;;;;;;;;;;5070867;28;1355;-71
2022/02/15 09:13:03;;;;;;;;;;;;;;;;;;5072173;28;859;-71
2022/02/15 09:15:30;;;;;;;;;;;;;;;;;;5070349;28;1252;-72
2022/02/15 09:17:56;;;;;;;;;;;;;;;;;;5071985;28;1399;-70
2022/02/15 09:20:23;;;;;;;;;;;;;;;;;;5070308;28;2002;-71
2022/02/15 09:22:50;;;;;;;;;;;;;;;;;;5070037;28;1456;-72
2022/02/15 09:25:17;;;;;;;;;;;;;;;;;;5068539;28;1489;-71
2022/02/15 09:27:45;;;;;;;;;;;;;;;;;;5071494;28;1349;-70
2022/02/15 09:30:11;;;;;;;;;;;;;;;;;;5070826;28;1201;-72
2022/02/15 09:32:37;;;;;;;;;;;;;;;;;;5081217;22;4030;-68
2022/02/15 09:35:04;;;;;;;;;;;;;;;;;;5038922;28;995;-69
2022/02/15 09:37:30;;;;;;;;;;;;;;;;;;5037885;28;1252;-69
2022/02/15 09:39:56;;;;;;;;;;;;;;;;;;5049048;28;1980;-69
2022/02/15 09:42:23;;;;;;;;;;;;;;;;;;5031979;28;1321;-67
2022/02/15 09:44:50;;;;;;;;;;;;;;;;;;5051300;28;1149;-69
2022/02/15 09:47:17;;;;;;;;;;;;;;;;;;5050486;28;1482;-70
2022/02/15 09:49:49;;;;;;;;;;;;;;;;;;5051310;28;923;-69
2022/02/15 09:52:15;;;;;;;;;;;;;;;;;;5051081;28;1483;-68
2022/02/15 09:54:42;;;;;;;;;;;;;;;;;;5048733;28;1429;-69
2022/02/15 09:57:08;;;;;;;;;;;;;;;;;;5032432;28;1543;-68
2022/02/15 09:59:35;;;;;;;;;;;;;;;;;;5050682;28;1918;-69
2022/02/15 10:02:03;;;;;;;;;;;;;;;;;;5051556;28;1116;-69
2022/02/15 10:04:33;;;;;;;;;;;;;;;;;;5031739;28;1506;-69
2022/02/15 10:06:59;;;;;;;;;;;;;;;;;;5031579;28;1216;-69
2022/02/15 10:09:26;;;;;;;;;;;;;;;;;;5050997;28;1542;-69
2022/02/15 10:11:52;;;;;;;;;;;;;;;;;;5033230;28;1238;-69
2022/02/15 10:14:19;;;;;;;;;;;;;;;;;;5050790;28;1308;-69
2022/02/15 10:16:45;;;;;;;;;;;;;;;;;;5050878;28;1137;-69
2022/02/15 10:19:20;;;;;;;;;;;;;;;;;;5051092;28;1969;-69
2022/02/15 10:21:48;;;;;;;;;;;;;;;;;;5033312;28;895;-67
2022/02/15 10:24:15;;;;;;;;;;;;;;;;;;5050838;28;1391;-69
2022/02/15 10:26:41;;;;;;;;;;;;;;;;;;5050753;28;1759;-68
2022/02/15 10:29:07;;;;;;;;;;;;;;;;;;5030939;28;1511;-69
2022/02/15 10:31:38;;;;;;;;;;;;;;;;;;5050514;28;1554;-69
2022/02/15 10:34:04;;;;;;;;;;;;;;;;;;5030850;28;1311;-68
2022/02/15 10:36:32;;;;;;;;;;;;;;;;;;5037115;28;1324;-69
2022/02/15 10:39:00;;;;;;;;;;;;;;;;;;5050868;28;1914;-69
2022/02/15 10:41:32;;;;;;;;;;;;;;;;;;5050837;28;1348;-69
2022/02/15 10:43:59;;;;;;;;;;;;;;;;;;5050779;28;1353;-67
2022/02/15 10:46:26;;;;;;;;;;;;;;;;;;5050191;28;1660;-69
2022/02/15 10:48:53;;;;;;;;;;;;;;;;;;5050368;28;1577;-70
2022/02/15 10:51:20;;;;;;;;;;;;;;;;;;5050775;28;1086;-69
2022/02/15 10:53:48;;;;;;;;;;;;;;;;;;5050214;28;1486;-69
2022/02/15 10:56:14;;;;;;;;;;;;;;;;;;5050619;28;1125;-69
2022/02/15 10:58:40;;;;;;;;;;;;;;;;;;5050589;28;1502;-68
2022/02/15 11:01:07;;;;;;;;;;;;;;;;;;5050701;28;1975;-69
2022/02/15 11:03:33;;;;;;;;;;;;;;;;;;5049966;28;1573;-69
2022/02/15 11:06:00;;;;;;;;;;;;;;;;;;5032316;28;1327;-70
2022/02/15 11:08:26;;;;;;;;;;;;;;;;;;5038565;28;1462;-68
2022/02/15 11:10:56;;;;;;;;;;;;;;;;;;5033300;28;964;-70
2022/02/15 11:13:22;;;;;;;;;;;;;;;;;;5045508;28;1519;-69
2022/02/15 11:15:51;;;;;;;;;;;;;;;;;;5054552;28;1018;-68
2022/02/15 11:18:27;;;;;;;;;;;;;;;;;;5054297;28;1439;-70
2022/02/15 11:20:56;;;;;;;;;;;;;;;;;;5053202;28;1979;-70
2022/02/15 11:23:23;;;;;;;;;;;;;;;;;;5054031;28;1502;-70
2022/02/15 11:25:49;;;;;;;;;;;;;;;;;;5053808;28;1125;-68
2022/02/15 11:28:19;;;;;;;;;;;;;;;;;;5054320;28;1715;-70
2022/02/15 11:30:46;;;;;;;;;;;;;;;;;;5054162;28;1097;-69
2022/02/15 11:33:17;;;;;;;;;;;;;;;;;;5053291;28;1499;-69
2022/02/15 11:35:49;;;;;;;;;;;;;;;;;;5053637;28;1112;-69
2022/02/15 11:38:15;;;;;;;;;;;;;;;;;;5053933;28;1486;-68
2022/02/15 11:40:41;;;;;;;;;;;;;;;;;;5053673;28;1910;-70
2022/02/15 11:43:10;;;;;;;;;;;;;;;;;;5048926;28;1538;-70
2022/02/15 11:45:41;;;;;;;;;;;;;;;;;;5052692;28;1489;-70
2022/02/15 11:48:08;;;;;;;;;;;;;;;;;;5046266;28;1305;-70
2022/02/15 11:50:41;;;;;;;;;;;;;;;;;;5051427;28;1498;-70
2022/02/15 11:53:07;;;;;;;;;;;;;;;;;;5041404;28;1443;-69
2022/02/15 11:55:35;;;;;;;;;;;;;;;;;;5053545;28;1116;-69
2022/02/15 11:58:01;;;;;;;;;;;;;;;;;;5024353;28;1440;-69
2022/02/15 12:00:31;;;;;;;;;;;;;;;;;;5028239;28;1903;-70
2022/02/15 12:02:59;;;;;;;;;;;;;;;;;;5053425;28;1569;-69
2022/02/15 12:05:26;;;;;;;;;;;;;;;;;;5053241;28;1106;-66
2022/02/15 12:07:52;;;;;;;;;;;;;;;;;;5053518;28;1506;-70
2022/02/15 12:10:19;;;;;;;;;;;;;;;;;;5053478;28;1065;-69
2022/02/15 12:12:47;;;;;;;;;;;;;;;;;;5034980;28;1506;-70
2022/02/15 12:15:13;;;;;;;;;;;;;;;;;;5053089;28;1518;-70
2022/02/15 12:17:43;;;;;;;;;;;;;;;;;;5052701;28;1566;-69
2022/02/15 12:20:12;;;;;;;;;;;;;;;;;;5053132;28;1918;-69
2022/02/15 12:22:39;;;;;;;;;;;;;;;;;;5052411;28;1502;-69
2022/02/15 12:25:26;;;;;;;;;;;;;;;;;;5031224;28;1335;-69
2022/02/15 12:27:52;;;;;;;;;;;;;;;;;;5047892;28;1518;-69
2022/02/15 12:30:18;;;;;;;;;;;;;;;;;;5033437;28;995;-70
2022/02/15 12:32:45;;;;;;;;;;;;;;;;;;5048893;28;1522;-70
2022/02/15 12:35:22;;;;;;;;;;;;;;;;;;5052770;28;812;-70
2022/02/15 12:37:50;;;;;;;;;;;;;;;;;;5031124;28;1408;-69
2022/02/15 12:40:16;;;;;;;;;;;;;;;;;;5032975;28;1977;-70
2022/02/15 12:42:42;;;;;;;;;;;;;;;;;;5047298;28;1475;-70
2022/02/15 12:45:10;;;;;;;;;;;;;;;;;;5052541;28;816;-70
2022/02/15 12:47:39;;;;;;;;;;;;;;;;;;5052245;28;1470;-69
2022/02/15 12:50:06;;;;;;;;;;;;;;;;;;5052622;28;1090;-70
2022/02/15 12:52:34;;;;;;;;;;;;;;;;;;5050976;28;1428;-70
2022/02/15 12:55:00;;;;;;;;;;;;;;;;;;5052066;28;1494;-70
2022/02/15 12:57:27;;;;;;;;;;;;;;;;;;5051443;28;1062;-69
2022/02/15 12:59:53;;;;;;;;;;;;;;;;;;5051294;28;1983;-70
2022/02/15 13:02:20;;;;;;;;;;;;;;;;;;5033260;28;956;-70
2022/02/15 13:04:48;;;;;;;;;;;;;;;;;;5032521;28;1416;-69
2022/02/15 13:07:14;;;;;;;;;;;;;;;;;;5051766;28;1546;-68
2022/02/15 13:09:46;;;;;;;;;;;;;;;;;;5050225;28;1347;-70
2022/02/15 13:12:16;;;;;;;;;;;;;;;;;;5052522;28;1101;-69
2022/02/15 13:14:45;;;;;;;;;;;;;;;;;;5051053;28;1529;-69
2022/02/15 13:17:11;;;;;;;;;;;;;;;;;;5050999;28;1471;-69
2022/02/15 13:19:38;;;;;;;;;;;;;;;;;;5051356;28;1926;-69
2022/02/15 13:22:08;;;;;;;;;;;;;;;;;;5048782;28;1528;-69
2022/02/15 13:24:35;;;;;;;;;;;;;;;;;;5040530;28;1317;-70
2022/02/15 13:27:02;;;;;;;;;;;;;;;;;;5046209;28;1247;-70
2022/02/15 13:29:29;;;;;;;;;;;;;;;;;;5051803;28;1090;-70
2022/02/15 13:31:56;;;;;;;;;;;;;;;;;;5052038;28;1066;-70
2022/02/15 13:34:26;;;;;;;;;;;;;;;;;;5050430;28;1395;-69
2022/02/15 13:36:56;;;;;;;;;;;;;;;;;;5051820;28;1069;-69
2022/02/15 13:39:22;;;;;;;;;;;;;;;;;;5033488;28;1524;-70
2022/02/15 13:41:49;;;;;;;;;;;;;;;;;;5052118;28;1977;-69
2022/02/15 13:44:16;;;;;;;;;;;;;;;;;;5051290;28;1438;-70
2022/02/15 13:46:43;;;;;;;;;;;;;;;;;;5051593;28;951;-69
2022/02/15 13:49:09;;;;;;;;;;;;;;;;;;5051650;28;1148;-70
2022/02/15 13:51:36;;;;;;;;;;;;;;;;;;5051309;28;1002;-69
2022/02/15 13:54:02;;;;;;;;;;;;;;;;;;5051339;28;1273;-69
2022/02/15 13:56:30;;;;;;;;;;;;;;;;;;5051671;28;864;-70
2022/02/15 13:58:57;;;;;;;;;;;;;;;;;;5052227;28;931;-70
2022/02/15 14:01:26;;;;;;;;;;;;;;;;;;5051499;28;1968;-70
2022/02/15 14:03:52;;;;;;;;;;;;;;;;;;5051132;28;1308;-70
2022/02/15 14:06:19;;;;;;;;;;;;;;;;;;5051184;28;793;-70
2022/02/15 14:08:46;;;;;;;;;;;;;;;;;;5050876;28;867;-69
2022/02/15 14:11:13;;;;;;;;;;;;;;;;;;5051381;28;1057;-69
2022/02/15 14:13:40;;;;;;;;;;;;;;;;;;5050105;28;1627;-70
2022/02/15 14:16:06;;;;;;;;;;;;;;;;;;5050791;28;1098;-69
2022/02/15 14:18:34;;;;;;;;;;;;;;;;;;5051159;28;1007;-71
2022/02/15 14:21:00;;;;;;;;;;;;;;;;;;5051285;28;1922;-69
2022/02/15 14:23:26;;;;;;;;;;;;;;;;;;5050822;28;1316;-70
2022/02/15 14:25:52;;;;;;;;;;;;;;;;;;5050623;28;1066;-70
2022/02/15 14:28:19;;;;;;;;;;;;;;;;;;5050880;28;1013;-69
2022/02/15 14:30:45;;;;;;;;;;;;;;;;;;5050814;28;823;-70
2022/02/15 14:33:12;;;;;;;;;;;;;;;;;;5050753;28;1443;-69
2022/02/15 14:35:40;;;;;;;;;;;;;;;;;;5049963;28;1472;-70
2022/02/15 14:38:07;;;;;;;;;;;;;;;;;;5050811;28;1004;-70
2022/02/15 14:40:34;;;;;;;;;;;;;;;;;;5050472;28;1910;-70
2022/02/15 14:43:00;;;;;;;;;;;;;;;;;;5049841;28;1487;-69
2022/02/15 14:45:26;;;;;;;;;;;;;;;;;;5050064;28;967;-70
2022/02/15 14:47:53;;;;;;;;;;;;;;;;;;5049347;28;1443;-69
2022/02/15 14:50:19;;;;;;;;;;;;;;;;;;5047512;28;1651;-70
2022/02/15 14:52:47;;;;;;;;;;;;;;;;;;5044997;28;1386;-69
2022/02/15 14:55:14;;;;;;;;;;;;;;;;;;5048467;28;1414;-69
2022/02/15 14:57:41;;;;;;;;;;;;;;;;;;5047643;28;1403;-69
2022/02/15 15:00:08;;;;;;;;;;;;;;;;;;5046067;28;1971;-69
2022/02/15 15:02:34;;;;;;;;;;;;;;;;;;5039530;28;1355;-69
2022/02/15 15:05:01;;;;;;;;;;;;;;;;;;5032880;28;1396;-70
2022/02/15 15:07:27;;;;;;;;;;;;;;;;;;5037007;28;1292;-70
2022/02/15 15:09:55;;;;;;;;;;;;;;;;;;5032470;28;1555;-70
2022/02/15 15:12:21;;;;;;;;;;;;;;;;;;5048357;28;1070;-70
2022/02/15 15:14:47;;;;;;;;;;;;;;;;;;5047596;28;1412;-70
2022/02/15 15:17:14;;;;;;;;;;;;;;;;;;5044273;28;1466;-70
2022/02/15 15:19:40;;;;;;;;;;;;;;;;;;5037595;28;1324;-69
2022/02/15 15:22:07;;;;;;;;;;;;;;;;;;5029744;28;1918;-70
2022/02/15 15:24:33;;;;;;;;;;;;;;;;;;5047501;28;1479;-70
2022/02/15 15:27:01;;;;;;;;;;;;;;;;;;5048011;28;1657;-70
2022/02/15 15:29:27;;;;;;;;;;;;;;;;;;5047074;28;1450;-69
2022/02/15 15:31:53;;;;;;;;;;;;;;;;;;5042524;28;1522;-70
2022/02/15 15:34:19;;;;;;;;;;;;;;;;;;5029393;28;1433;-70
2022/02/15 15:36:46;;;;;;;;;;;;;;;;;;5032737;28;1257;-70
2022/02/15 15:39:12;;;;;;;;;;;;;;;;;;5047495;28;1463;-70
2022/02/15 15:41:39;;;;;;;;;;;;;;;;;;5047170;28;1899;-70
2022/02/15 15:44:07;;;;;;;;;;;;;;;;;;5029509;28;1486;-69
2022/02/15 15:46:34;;;;;;;;;;;;;;;;;;5047087;28;1519;-70
2022/02/15 15:49:01;;;;;;;;;;;;;;;;;;5047616;28;1624;-68
2022/02/15 15:51:27;;;;;;;;;;;;;;;;;;5047370;28;1531;-71
2022/02/15 15:53:53;;;;;;;;;;;;;;;;;;5047606;28;1510;-70
2022/02/15 15:56:19;;;;;;;;;;;;;;;;;;5046914;28;1482;-70
2022/02/15 15:58:46;;;;;;;;;;;;;;;;;;5037839;28;1359;-71
2022/02/15 16:01:13;;;;;;;;;;;;;;;;;;5027414;28;1981;-70
2022/02/15 16:03:39;;;;;;;;;;;;;;;;;;5050926;28;1466;-70
2022/02/15 16:06:05;;;;;;;;;;;;;;;;;;5050696;28;1455;-70
2022/02/15 16:08:32;;;;;;;;;;;;;;;;;;5049459;28;1503;-70
2022/02/15 16:10:58;;;;;;;;;;;;;;;;;;5050361;28;1513;-69
2022/02/15 16:13:24;;;;;;;;;;;;;;;;;;5050894;28;1482;-70
2022/02/15 16:15:50;;;;;;;;;;;;;;;;;;5050646;28;1467;-69
2022/02/15 16:18:18;;;;;;;;;;;;;;;;;;5050741;28;1463;-70
2022/02/15 16:20:44;;;;;;;;;;;;;;;;;;5050715;28;1946;-70
2022/02/15 16:23:11;;;;;;;;;;;;;;;;;;5050172;28;1517;-69
2022/02/15 16:25:37;;;;;;;;;;;;;;;;;;5050379;28;1655;-69
2022/02/15 16:28:04;;;;;;;;;;;;;;;;;;5048328;28;1510;-70
2022/02/15 16:30:31;;;;;;;;;;;;;;;;;;5044559;28;1527;-70
2022/02/15 16:32:59;;;;;;;;;;;;;;;;;;5050359;28;1361;-70
2022/02/15 16:35:26;;;;;;;;;;;;;;;;;;5049545;28;1411;-70
2022/02/15 16:37:52;;;;;;;;;;;;;;;;;;5050234;28;1482;-70
2022/02/15 16:40:19;;;;;;;;;;;;;;;;;;5050117;28;1475;-69
2022/02/15 16:42:45;;;;;;;;;;;;;;;;;;5050373;28;1891;-69
2022/02/15 16:45:11;;;;;;;;;;;;;;;;;;5050289;28;1517;-70
2022/02/15 16:47:37;;;;;;;;;;;;;;;;;;5050080;28;1470;-70
2022/02/15 16:50:04;;;;;;;;;;;;;;;;;;5049616;28;1452;-70
2022/02/15 16:52:31;;;;;;;;;;;;;;;;;;5050531;28;1421;-69
2022/02/15 16:54:58;;;;;;;;;;;;;;;;;;5023651;28;1267;-70
2022/02/15 16:57:25;;;;;;;;;;;;;;;;;;5050744;28;729;-70
2022/02/15 16:59:51;;;;;;;;;;;;;;;;;;5048439;28;1557;-70
2022/02/15 17:02:17;;;;;;;;;;;;;;;;;;5031990;28;2001;-69
2022/02/15 17:04:44;;;;;;;;;;;;;;;;;;5030158;28;1251;-69
2022/02/15 17:07:10;;;;;;;;;;;;;;;;;;5038089;28;1237;-69
2022/02/15 17:09:38;;;;;;;;;;;;;;;;;;5049352;28;1543;-69
2022/02/15 17:12:05;;;;;;;;;;;;;;;;;;5050335;28;1065;-68
2022/02/15 17:14:32;;;;;;;;;;;;;;;;;;5050321;28;1328;-69
2022/02/15 17:16:58;;;;;;;;;;;;;;;;;;5050422;28;818;-70